Time;durP1;ratioP1;P1;durP2;ratioP2;P2;SDS_P1;SDS_P2;PMS_P1;PMS_P2;Temp;Humidity;BMP_temperature;BMP_pressure;BME280_temperature;BME280_humidity;BME280_pressure;Samples;Min_cycle;Max_cycle;Signal;HPM_P1;HPM_P2
2021/12/23 00:01:08;;;;;;;;;;;-1.90;99.90;;;;;;4978295;28;19940;-81
2021/12/23 00:03:33;;;;;;;;;;;-1.90;99.90;;;;;;4972921;28;20366;-83
2021/12/23 00:05:59;;;;;;;;;;;-1.90;99.90;;;;;;4975752;28;20317;-83
2021/12/23 00:08:27;;;;;;;;;;;-1.90;99.90;;;;;;4975682;28;19929;-81
2021/12/23 00:10:53;;;;;;;;;;;-2.00;99.90;;;;;;4977606;28;20021;-81
2021/12/23 00:13:19;;;;;;;;;;;-1.90;99.90;;;;;;4974962;28;20642;-82
2021/12/23 00:23:47;;;;;;;;;;;-2.00;99.90;;;;;;4971727;28;19921;-82
2021/12/23 00:26:13;;;;;;;;;;;-2.10;99.90;;;;;;4979737;28;20289;-83
2021/12/23 00:28:39;;;;;;;;;;;-2.10;99.90;;;;;;4991560;28;19921;-80
2021/12/23 00:31:05;;;;;;;;;;;-2.10;99.90;;;;;;4993075;28;19917;-81
2021/12/23 00:33:30;;;;;;;;;;;-2.10;99.90;;;;;;4981181;28;20398;-80
2021/12/23 00:35:57;;;;;;;;;;;-2.10;99.90;;;;;;4990846;28;19996;-81
2021/12/23 00:38:28;;;;;;;;;;;-2.10;99.90;;;;;;4992686;28;20042;-81
2021/12/23 00:40:54;;;;;;;;;;;-2.10;99.90;;;;;;4992997;28;19956;-81
2021/12/23 00:43:20;;;;;;;;;;;-2.10;99.90;;;;;;4993337;28;19960;-82
2021/12/23 00:45:45;;;;;;;;;;;-2.10;99.90;;;;;;4990349;28;20029;-81
2021/12/23 00:48:11;;;;;;;;;;;-2.10;99.90;;;;;;4992701;28;19928;-81
2021/12/23 00:50:37;;;;;;;;;;;-2.10;99.90;;;;;;4991719;28;19916;-81
2021/12/23 00:53:06;;;;;;;;;;;-2.10;99.90;;;;;;5007072;28;19914;-81
2021/12/23 00:55:32;;;;;;;;;;;-2.10;99.90;;;;;;5006262;28;19914;-82
2021/12/23 00:57:59;;;;;;;;;;;-2.10;99.90;;;;;;4990402;28;20391;-80
2021/12/23 01:00:25;;;;;;;;;;;-2.10;99.90;;;;;;5003940;28;21353;-81
2021/12/23 01:02:51;;;;;;;;;;;-2.10;99.90;;;;;;4991053;28;20417;-82
2021/12/23 01:05:17;;;;;;;;;;;-2.10;99.90;;;;;;4990548;28;19913;-81
2021/12/23 01:07:43;;;;;;;;;;;-2.10;99.90;;;;;;4991023;28;19988;-82
2021/12/23 01:10:09;;;;;;;;;;;-2.20;99.90;;;;;;4991679;28;19909;-82
2021/12/23 01:12:43;;;;;;;;;;;-2.10;99.90;;;;;;4990844;28;19914;-84
2021/12/23 01:15:17;;;;;;;;;;;-2.00;99.90;;;;;;4992293;28;19917;-80
2021/12/23 01:20:25;;;;;;;;;;;-2.10;99.90;;;;;;4991080;28;19914;-81
2021/12/23 01:22:50;;;;;;;;;;;-2.10;99.90;;;;;;4993553;28;20337;-82
2021/12/23 01:25:16;;;;;;;;;;;-2.10;99.90;;;;;;4991799;28;19914;-83
2021/12/23 01:27:41;;;;;;;;;;;-2.20;99.90;;;;;;5004807;28;20482;-81
2021/12/23 01:30:07;;;;;;;;;;;-2.20;99.90;;;;;;4994028;28;19909;-81
2021/12/23 01:32:32;;;;;;;;;;;-2.10;99.90;;;;;;4991957;28;19914;-82
2021/12/23 01:34:58;;;;;;;;;;;-2.10;99.90;;;;;;4995320;28;20270;-83
2021/12/23 01:37:23;;;;;;;;;;;-2.20;99.90;;;;;;5002403;28;19918;-82
2021/12/23 01:39:49;;;;;;;;;;;-2.20;99.90;;;;;;4995398;28;19945;-81
2021/12/23 01:42:14;;;;;;;;;;;-2.20;99.90;;;;;;4995547;28;19960;-81
2021/12/23 01:44:40;;;;;;;;;;;-2.20;99.90;;;;;;4997473;28;20273;-82
2021/12/23 01:47:05;;;;;;;;;;;-2.20;99.90;;;;;;4993890;28;20297;-82
2021/12/23 01:49:31;;;;;;;;;;;-2.20;99.90;;;;;;4997585;28;19913;-82
2021/12/23 01:51:57;;;;;;;;;;;-2.20;99.90;;;;;;4995813;28;19920;-81
2021/12/23 01:54:22;;;;;;;;;;;-2.20;99.90;;;;;;4994410;28;20122;-82
2021/12/23 01:56:49;;;;;;;;;;;-2.20;99.90;;;;;;4993710;28;20032;-81
2021/12/23 01:59:15;;;;;;;;;;;-2.30;99.90;;;;;;4996411;28;19953;-81
2021/12/23 02:01:41;;;;;;;;;;;-2.30;99.90;;;;;;4992538;28;19914;-82
2021/12/23 02:04:07;;;;;;;;;;;-2.30;99.90;;;;;;4998268;28;19910;-83
2021/12/23 02:06:32;;;;;;;;;;;-2.30;99.90;;;;;;4997869;28;19967;-81
2021/12/23 02:08:58;;;;;;;;;;;-2.40;99.90;;;;;;5006710;28;20310;-82
2021/12/23 02:11:24;;;;;;;;;;;-2.30;99.90;;;;;;5001061;28;19909;-82
2021/12/23 02:13:50;;;;;;;;;;;-2.30;99.90;;;;;;4993854;28;19950;-81
2021/12/23 02:16:15;;;;;;;;;;;-2.30;99.90;;;;;;4995238;28;20451;-81
2021/12/23 02:18:41;;;;;;;;;;;-2.40;99.90;;;;;;4996204;28;19918;-81
2021/12/23 02:21:07;;;;;;;;;;;-2.40;99.90;;;;;;4993997;28;19914;-81
2021/12/23 02:23:32;;;;;;;;;;;-2.40;99.90;;;;;;4996242;28;19959;-81
2021/12/23 02:25:58;;;;;;;;;;;-2.30;99.90;;;;;;5001138;28;19918;-81
2021/12/23 02:28:23;;;;;;;;;;;-2.40;99.90;;;;;;4996424;28;19914;-80
2021/12/23 02:30:51;;;;;;;;;;;-2.30;99.90;;;;;;4994874;28;19913;-82
2021/12/23 02:33:17;;;;;;;;;;;-2.30;99.90;;;;;;5001635;28;19953;-81
2021/12/23 02:35:43;;;;;;;;;;;-2.30;99.90;;;;;;4993754;28;20324;-82
2021/12/23 02:38:08;;;;;;;;;;;-2.40;99.90;;;;;;4994131;28;19917;-80
2021/12/23 02:40:35;;;;;;;;;;;-2.30;99.90;;;;;;4995817;28;20287;-79
2021/12/23 02:43:27;;;;;;;;;;;-2.30;99.90;;;;;;4995775;28;20413;-80
2021/12/23 02:45:54;;;;;;;;;;;-2.20;99.90;;;;;;4990575;28;19922;-81
2021/12/23 02:48:21;;;;;;;;;;;-2.30;99.90;;;;;;4973700;28;20004;-83
2021/12/23 02:50:48;;;;;;;;;;;-2.30;99.90;;;;;;4991580;28;19960;-79
2021/12/23 02:53:13;;;;;;;;;;;-2.40;99.90;;;;;;4987622;28;19914;-81
2021/12/23 02:55:39;;;;;;;;;;;-2.30;99.90;;;;;;4987819;28;19929;-80
2021/12/23 02:58:05;;;;;;;;;;;-2.30;99.90;;;;;;4982582;28;19933;-80
2021/12/23 03:00:31;;;;;;;;;;;-2.30;99.90;;;;;;4978718;28;20270;-80
2021/12/23 03:02:56;;;;;;;;;;;-2.30;99.90;;;;;;4974172;28;19914;-81
2021/12/23 03:05:22;;;;;;;;;;;-2.40;99.90;;;;;;4974634;28;20561;-83
2021/12/23 03:07:48;;;;;;;;;;;-2.40;99.90;;;;;;4976138;28;19963;-82
2021/12/23 03:10:13;;;;;;;;;;;-2.40;99.90;;;;;;4988476;28;19997;-81
2021/12/23 03:12:39;;;;;;;;;;;-2.40;99.90;;;;;;4977352;28;20378;-83
2021/12/23 03:15:05;;;;;;;;;;;-2.30;99.90;;;;;;4976987;28;19914;-82
2021/12/23 03:17:30;;;;;;;;;;;-2.30;99.90;;;;;;4978725;28;19914;-83
2021/12/23 03:19:56;;;;;;;;;;;-2.30;99.90;;;;;;4975996;28;19921;-82
2021/12/23 03:22:21;;;;;;;;;;;-2.30;99.90;;;;;;4978202;28;19913;-81
2021/12/23 03:24:47;;;;;;;;;;;-2.30;99.90;;;;;;4989170;28;19913;-81
2021/12/23 03:27:12;;;;;;;;;;;-2.30;99.90;;;;;;4970951;28;19914;-81
2021/12/23 03:29:38;;;;;;;;;;;-2.20;99.90;;;;;;4972867;28;19920;-81
2021/12/23 03:32:04;;;;;;;;;;;-2.30;99.90;;;;;;4977664;28;20427;-82
2021/12/23 03:34:29;;;;;;;;;;;-2.30;99.90;;;;;;4974364;28;19920;-81
2021/12/23 03:36:55;;;;;;;;;;;-2.30;99.90;;;;;;4977258;28;19924;-81
2021/12/23 03:39:20;;;;;;;;;;;-2.30;99.90;;;;;;4973952;28;20149;-83
2021/12/23 03:41:47;;;;;;;;;;;-2.30;99.90;;;;;;4977628;28;19925;-83
2021/12/23 03:44:12;;;;;;;;;;;-2.30;99.90;;;;;;4973384;28;20554;-81
2021/12/23 03:46:38;;;;;;;;;;;-2.30;99.90;;;;;;4973312;28;19914;-82
2021/12/23 03:49:07;;;;;;;;;;;-2.30;99.90;;;;;;4975885;28;20254;-81
2021/12/23 03:51:32;;;;;;;;;;;-2.30;99.90;;;;;;4990157;28;19914;-81
2021/12/23 03:53:58;;;;;;;;;;;-2.30;99.90;;;;;;4985932;28;20350;-81
2021/12/23 03:56:23;;;;;;;;;;;-2.40;99.90;;;;;;4974018;28;19921;-82
2021/12/23 03:58:49;;;;;;;;;;;-2.30;99.90;;;;;;4974309;28;19914;-81
2021/12/23 04:01:15;;;;;;;;;;;-2.30;99.90;;;;;;4976639;28;20005;-81
2021/12/23 04:03:40;;;;;;;;;;;-2.30;99.90;;;;;;4975268;28;20378;-82
2021/12/23 04:06:06;;;;;;;;;;;-2.30;99.90;;;;;;4972287;28;19914;-84
2021/12/23 04:08:31;;;;;;;;;;;-2.30;99.90;;;;;;4973473;28;19925;-81
2021/12/23 04:10:59;;;;;;;;;;;-2.30;99.90;;;;;;4976622;28;19914;-82
2021/12/23 04:13:25;;;;;;;;;;;-2.30;99.90;;;;;;4972639;28;19920;-82
2021/12/23 04:15:51;;;;;;;;;;;-2.30;99.90;;;;;;4977019;28;20008;-82
2021/12/23 04:18:17;;;;;;;;;;;-2.30;99.90;;;;;;4992815;28;20004;-82
2021/12/23 04:20:55;;;;;;;;;;;-2.20;99.90;;;;;;4998584;28;20354;-82
2021/12/23 04:23:24;;;;;;;;;;;-2.30;99.90;;;;;;4992962;28;19920;-81
2021/12/23 04:25:50;;;;;;;;;;;-2.30;99.90;;;;;;4999002;28;20012;-82
2021/12/23 04:28:15;;;;;;;;;;;-2.40;99.90;;;;;;4992316;28;20356;-82
2021/12/23 04:30:41;;;;;;;;;;;-2.30;99.90;;;;;;4992217;28;19924;-81
2021/12/23 04:33:07;;;;;;;;;;;-2.30;99.90;;;;;;4999715;28;20347;-82
2021/12/23 04:35:32;;;;;;;;;;;-2.30;99.90;;;;;;4999900;28;20529;-81
2021/12/23 04:37:58;;;;;;;;;;;-2.30;99.90;;;;;;4991549;28;19913;-83
2021/12/23 04:40:23;;;;;;;;;;;-2.30;99.90;;;;;;4992305;28;19914;-82
2021/12/23 04:42:49;;;;;;;;;;;-2.30;99.90;;;;;;4991240;28;19910;-82
2021/12/23 04:45:14;;;;;;;;;;;-2.30;99.90;;;;;;4999002;28;19929;-82
2021/12/23 04:47:40;;;;;;;;;;;-2.20;99.90;;;;;;4992363;28;19921;-81
2021/12/23 04:50:08;;;;;;;;;;;-2.20;99.90;;;;;;4998592;28;20322;-86
2021/12/23 04:52:33;;;;;;;;;;;-2.20;99.90;;;;;;4998013;28;20451;-84
2021/12/23 04:55:01;;;;;;;;;;;-2.20;99.90;;;;;;4991480;28;19918;-85
2021/12/23 04:57:26;;;;;;;;;;;-2.20;99.90;;;;;;4999241;28;19953;-84
2021/12/23 04:59:52;;;;;;;;;;;-2.20;99.90;;;;;;4998721;28;20360;-83
2021/12/23 05:02:19;;;;;;;;;;;-2.20;99.90;;;;;;4991245;28;19940;-85
2021/12/23 05:04:45;;;;;;;;;;;-2.10;99.90;;;;;;4991197;28;20301;-84
2021/12/23 05:07:10;;;;;;;;;;;-2.10;99.90;;;;;;4989244;28;19929;-85
2021/12/23 05:09:36;;;;;;;;;;;-2.10;99.90;;;;;;4993490;28;19913;-84
2021/12/23 05:12:01;;;;;;;;;;;-2.10;99.90;;;;;;4998599;28;20324;-83
2021/12/23 05:14:27;;;;;;;;;;;-1.90;99.90;;;;;;4992079;28;20388;-83
2021/12/23 05:16:52;;;;;;;;;;;-2.00;99.90;;;;;;4999610;28;20037;-84
2021/12/23 05:19:18;;;;;;;;;;;-2.10;99.90;;;;;;4995181;28;19910;-84
2021/12/23 05:21:43;;;;;;;;;;;-2.10;99.90;;;;;;4991653;28;19914;-85
2021/12/23 05:24:09;;;;;;;;;;;-2.10;99.90;;;;;;4991818;28;19914;-85
2021/12/23 05:26:34;;;;;;;;;;;-2.10;99.90;;;;;;5006032;28;19996;-85
2021/12/23 05:29:00;;;;;;;;;;;-2.10;99.90;;;;;;4993244;28;19921;-84
2021/12/23 05:31:25;;;;;;;;;;;-2.10;99.90;;;;;;4999471;28;22352;-84
2021/12/23 05:33:51;;;;;;;;;;;-2.10;99.90;;;;;;4992499;28;19956;-84
2021/12/23 05:36:16;;;;;;;;;;;-2.10;99.90;;;;;;4992628;28;19961;-85
2021/12/23 05:38:42;;;;;;;;;;;-2.00;99.90;;;;;;4994191;28;20665;-84
2021/12/23 05:41:07;;;;;;;;;;;-2.00;99.90;;;;;;4992966;28;19914;-84
2021/12/23 05:43:32;;;;;;;;;;;-2.00;99.90;;;;;;5000819;28;19952;-84
2021/12/23 05:46:00;;;;;;;;;;;-2.00;99.90;;;;;;5006177;28;19921;-83
2021/12/23 05:48:26;;;;;;;;;;;-2.00;99.90;;;;;;5006599;28;19930;-83
2021/12/23 05:50:51;;;;;;;;;;;-2.00;99.90;;;;;;4992366;28;20142;-83
2021/12/23 05:53:16;;;;;;;;;;;-2.00;99.90;;;;;;4991186;28;20633;-85
2021/12/23 05:55:42;;;;;;;;;;;-2.00;99.90;;;;;;4994713;28;19935;-84
2021/12/23 05:58:07;;;;;;;;;;;-2.00;99.90;;;;;;4992685;28;19913;-85
2021/12/23 06:00:33;;;;;;;;;;;-2.00;99.90;;;;;;4993281;28;19910;-85
2021/12/23 06:03:00;;;;;;;;;;;-2.10;99.90;;;;;;4992121;28;20032;-86
2021/12/23 06:05:25;;;;;;;;;;;-2.10;99.90;;;;;;4993881;28;19925;-85
2021/12/23 06:07:51;;;;;;;;;;;-2.00;99.90;;;;;;4991468;28;19921;-86
2021/12/23 06:10:17;;;;;;;;;;;-2.00;99.90;;;;;;4991529;28;19920;-84
2021/12/23 06:12:43;;;;;;;;;;;-2.00;99.90;;;;;;4991552;28;19924;-84
2021/12/23 06:15:09;;;;;;;;;;;-2.00;99.90;;;;;;4991220;28;19963;-86
2021/12/23 06:17:34;;;;;;;;;;;-2.00;99.90;;;;;;4988797;28;19921;-85
2021/12/23 06:20:00;;;;;;;;;;;-2.00;99.90;;;;;;4992309;28;20384;-85
2021/12/23 06:22:26;;;;;;;;;;;-2.00;99.90;;;;;;4999963;28;19968;-85
2021/12/23 06:24:52;;;;;;;;;;;-2.00;99.90;;;;;;4994631;28;19913;-84
2021/12/23 06:27:18;;;;;;;;;;;-2.00;99.90;;;;;;4995802;28;19919;-84
2021/12/23 06:29:46;;;;;;;;;;;-2.00;99.90;;;;;;4997114;28;19909;-85
2021/12/23 06:32:12;;;;;;;;;;;-1.90;99.90;;;;;;4996089;28;19921;-85
2021/12/23 06:34:37;;;;;;;;;;;-1.90;99.90;;;;;;4997555;28;19953;-85
2021/12/23 06:37:04;;;;;;;;;;;-1.90;99.90;;;;;;4987458;28;19916;-83
2021/12/23 06:39:32;;;;;;;;;;;-1.90;99.90;;;;;;4993048;28;20471;-85
2021/12/23 06:41:58;;;;;;;;;;;-1.90;99.90;;;;;;4993700;28;19920;-84
2021/12/23 06:44:23;;;;;;;;;;;-1.90;99.90;;;;;;4992911;28;20312;-83
2021/12/23 06:46:49;;;;;;;;;;;-1.90;99.90;;;;;;4999992;28;19913;-84
2021/12/23 06:49:15;;;;;;;;;;;-1.90;99.90;;;;;;4994523;28;19921;-83
2021/12/23 06:51:41;;;;;;;;;;;-1.90;99.90;;;;;;4999106;28;19913;-85
2021/12/23 06:54:08;;;;;;;;;;;-1.80;99.90;;;;;;4994016;28;19956;-86
2021/12/23 06:56:33;;;;;;;;;;;-1.70;99.90;;;;;;4996264;28;19914;-85
2021/12/23 06:58:59;;;;;;;;;;;-1.80;99.90;;;;;;5008107;28;20260;-84
2021/12/23 07:01:25;;;;;;;;;;;-1.70;99.90;;;;;;5000222;28;20040;-86
2021/12/23 07:06:25;;;;;;;;;;;-1.60;99.90;;;;;;4991765;28;19996;-86
2021/12/23 07:08:54;;;;;;;;;;;-1.60;99.90;;;;;;4987789;28;19921;-85
2021/12/23 07:11:19;;;;;;;;;;;-1.60;99.90;;;;;;4982881;28;19992;-86
2021/12/23 07:13:44;;;;;;;;;;;-1.60;99.90;;;;;;4993049;28;20004;-86
2021/12/23 07:16:10;;;;;;;;;;;-1.60;99.90;;;;;;4992670;28;19936;-84
2021/12/23 07:18:35;;;;;;;;;;;-1.60;99.90;;;;;;5007749;28;19914;-84
2021/12/23 07:21:01;;;;;;;;;;;-1.60;99.90;;;;;;4987130;28;19913;-85
2021/12/23 07:23:26;;;;;;;;;;;-1.60;99.90;;;;;;4992603;28;20023;-84
2021/12/23 07:25:52;;;;;;;;;;;-1.60;99.90;;;;;;4994843;28;19913;-84
2021/12/23 07:28:17;;;;;;;;;;;-1.50;99.90;;;;;;5009594;28;19952;-84
2021/12/23 07:30:43;;;;;;;;;;;-1.60;99.90;;;;;;4994440;28;19914;-83
2021/12/23 07:33:08;;;;;;;;;;;-1.60;99.90;;;;;;5008191;28;19914;-83
2021/12/23 07:35:34;;;;;;;;;;;-1.60;99.90;;;;;;4992181;28;20409;-84
2021/12/23 07:38:01;;;;;;;;;;;-1.60;99.90;;;;;;4994867;28;19913;-84
2021/12/23 07:40:27;;;;;;;;;;;-1.50;99.90;;;;;;4994029;28;19921;-83
2021/12/23 07:42:54;;;;;;;;;;;-1.60;99.90;;;;;;4992762;28;19941;-83
2021/12/23 07:45:21;;;;;;;;;;;-1.60;99.90;;;;;;4994362;28;20036;-85
2021/12/23 07:47:46;;;;;;;;;;;-1.60;99.90;;;;;;4992995;28;19921;-85
2021/12/23 07:50:12;;;;;;;;;;;-1.50;99.90;;;;;;4993439;28;20428;-83
2021/12/23 07:52:37;;;;;;;;;;;-1.50;99.90;;;;;;4995462;28;19920;-82
2021/12/23 07:55:03;;;;;;;;;;;-1.40;99.90;;;;;;5008751;28;20489;-83
2021/12/23 07:57:29;;;;;;;;;;;-1.40;99.90;;;;;;4990860;28;19959;-84
2021/12/23 07:59:57;;;;;;;;;;;-1.40;99.90;;;;;;5009098;28;19914;-84
2021/12/23 08:02:23;;;;;;;;;;;-1.40;99.90;;;;;;5006526;28;19913;-84
2021/12/23 08:04:49;;;;;;;;;;;-1.40;99.90;;;;;;5007059;28;20417;-85
2021/12/23 08:07:14;;;;;;;;;;;-1.40;99.90;;;;;;5005114;28;20752;-84
2021/12/23 08:09:39;;;;;;;;;;;-1.30;99.90;;;;;;4993065;28;19960;-84
2021/12/23 08:12:10;;;;;;;;;;;-1.40;99.90;;;;;;4985765;28;19945;-85
2021/12/23 08:14:36;;;;;;;;;;;-1.40;99.90;;;;;;4989240;28;19910;-84
2021/12/23 08:17:02;;;;;;;;;;;-1.40;99.90;;;;;;4993490;28;19968;-84
2021/12/23 08:19:27;;;;;;;;;;;-1.30;99.90;;;;;;4990229;28;20400;-84
2021/12/23 08:21:53;;;;;;;;;;;-1.00;99.90;;;;;;4991630;28;19920;-84
2021/12/23 08:24:18;;;;;;;;;;;-0.80;99.90;;;;;;4992791;28;19913;-84
2021/12/23 08:26:51;;;;;;;;;;;-0.90;99.90;;;;;;4994597;28;20000;-82
2021/12/23 08:29:18;;;;;;;;;;;-1.00;99.90;;;;;;4993409;28;20461;-84
2021/12/23 08:31:45;;;;;;;;;;;-1.00;99.90;;;;;;4991180;28;19976;-85
2021/12/23 08:34:11;;;;;;;;;;;-1.00;99.90;;;;;;4998990;28;19928;-85
2021/12/23 08:36:36;;;;;;;;;;;-1.10;99.90;;;;;;4992587;28;19917;-85
2021/12/23 08:39:02;;;;;;;;;;;-1.00;99.90;;;;;;5007078;28;19925;-85
2021/12/23 08:41:27;;;;;;;;;;;-1.10;99.90;;;;;;4991676;28;19918;-85
2021/12/23 08:43:53;;;;;;;;;;;-1.10;99.90;;;;;;4993081;28;19945;-85
2021/12/23 08:46:18;;;;;;;;;;;-1.10;99.90;;;;;;4989819;28;19924;-84
2021/12/23 08:48:44;;;;;;;;;;;-1.00;99.90;;;;;;4991189;28;19976;-84
2021/12/23 08:51:09;;;;;;;;;;;-1.00;99.90;;;;;;4988619;28;20005;-84
2021/12/23 08:53:35;;;;;;;;;;;-1.00;99.90;;;;;;4993301;28;19910;-83
2021/12/23 08:56:00;;;;;;;;;;;-1.00;99.90;;;;;;4993564;28;20013;-84
2021/12/23 08:58:26;;;;;;;;;;;-0.90;99.90;;;;;;4984781;28;19968;-84
2021/12/23 09:00:51;;;;;;;;;;;-0.90;99.90;;;;;;5005729;28;20008;-85
2021/12/23 09:03:20;;;;;;;;;;;-1.00;99.90;;;;;;4991440;28;19921;-85
2021/12/23 09:05:45;;;;;;;;;;;-0.90;99.90;;;;;;4997910;28;20290;-85
2021/12/23 09:08:11;;;;;;;;;;;-0.90;99.90;;;;;;5004440;28;19917;-84
2021/12/23 09:10:36;;;;;;;;;;;-0.90;99.90;;;;;;5005850;28;19921;-84
2021/12/23 09:13:03;;;;;;;;;;;-0.80;99.90;;;;;;4988449;28;19914;-84
2021/12/23 09:15:28;;;;;;;;;;;-0.80;99.90;;;;;;5003313;28;19925;-84
2021/12/23 09:17:54;;;;;;;;;;;-0.80;99.90;;;;;;4994651;28;20581;-84
2021/12/23 09:20:20;;;;;;;;;;;-0.80;99.90;;;;;;4990603;28;19976;-83
2021/12/23 09:22:47;;;;;;;;;;;-0.70;99.90;;;;;;4992334;28;19913;-85
2021/12/23 09:25:22;;;;;;;;;;;-0.70;99.90;;;;;;4989750;28;19918;-86
2021/12/23 09:33:04;;;;;;;;;;;-0.70;99.90;;;;;;4976728;28;20341;-84
2021/12/23 09:35:30;;;;;;;;;;;-0.70;99.90;;;;;;4970291;28;19923;-87
2021/12/23 09:37:58;;;;;;;;;;;-0.70;99.90;;;;;;4972793;28;19922;-85
2021/12/23 09:40:25;;;;;;;;;;;-0.70;99.90;;;;;;4971299;28;19937;-85
2021/12/23 09:42:51;;;;;;;;;;;-0.70;99.90;;;;;;4977433;28;19918;-86
2021/12/23 09:45:18;;;;;;;;;;;-0.70;99.90;;;;;;4988024;28;20375;-86
2021/12/23 09:47:46;;;;;;;;;;;-0.70;99.90;;;;;;5006230;28;20020;-85
2021/12/23 09:50:13;;;;;;;;;;;-0.60;99.90;;;;;;4989720;28;20467;-84
2021/12/23 09:52:43;;;;;;;;;;;-0.60;99.90;;;;;;4992010;28;19975;-85
2021/12/23 09:55:09;;;;;;;;;;;-0.50;99.90;;;;;;5002986;28;19914;-84
2021/12/23 09:57:35;;;;;;;;;;;-0.50;99.90;;;;;;4982610;28;19917;-83
2021/12/23 10:00:04;;;;;;;;;;;-0.50;99.90;;;;;;4977717;28;20621;-82
2021/12/23 10:02:29;;;;;;;;;;;-0.40;99.90;;;;;;4979636;28;19914;-83
2021/12/23 10:04:55;;;;;;;;;;;-0.40;99.90;;;;;;4974444;28;19980;-84
2021/12/23 10:07:20;;;;;;;;;;;-0.40;99.90;;;;;;4972596;28;19918;-85
2021/12/23 10:31:34;;;;;;;;;;;-0.30;99.90;;;;;;4980775;28;20459;-86
2021/12/23 10:37:14;;;;;;;;;;;-0.10;99.90;;;;;;4975089;28;20012;-84
2021/12/23 10:39:44;;;;;;;;;;;-0.10;99.90;;;;;;4976177;28;19946;-85
2021/12/23 10:42:21;;;;;;;;;;;0.00;99.90;;;;;;4992658;28;19920;-85
2021/12/23 10:44:49;;;;;;;;;;;0.00;99.90;;;;;;4994262;28;19973;-82
2021/12/23 10:47:30;;;;;;;;;;;0.00;99.90;;;;;;4992289;28;19917;-83
2021/12/23 10:49:59;;;;;;;;;;;0.10;99.90;;;;;;5001636;28;19922;-84
2021/12/23 10:52:30;;;;;;;;;;;0.10;99.90;;;;;;4975416;28;19921;-84
2021/12/23 11:00:22;;;;;;;;;;;0.10;99.90;;;;;;4999638;28;19940;-84
2021/12/23 11:03:12;;;;;;;;;;;0.10;99.90;;;;;;4972721;28;19913;-83
2021/12/23 11:05:44;;;;;;;;;;;0.10;99.90;;;;;;4983282;28;19913;-85
2021/12/23 11:08:25;;;;;;;;;;;0.10;99.90;;;;;;4985276;28;19925;-83
2021/12/23 11:30:51;;;;;;;;;;;0.30;99.90;;;;;;4972065;28;20008;-83
2021/12/23 11:38:11;;;;;;;;;;;0.40;99.90;;;;;;4973706;28;19917;-84
2021/12/23 11:40:58;;;;;;;;;;;0.50;99.90;;;;;;4968378;28;19914;-82
2021/12/23 11:46:07;;;;;;;;;;;0.50;99.90;;;;;;4983866;28;20020;-84
2021/12/23 11:48:40;;;;;;;;;;;0.50;99.90;;;;;;4980193;28;20446;-84
2021/12/23 11:51:11;;;;;;;;;;;0.60;99.90;;;;;;4976967;28;20525;-83
2021/12/23 11:53:39;;;;;;;;;;;0.60;99.90;;;;;;4990224;28;19960;-81
2021/12/23 11:56:08;;;;;;;;;;;0.70;99.90;;;;;;5009760;28;19928;-80
2021/12/23 11:58:41;;;;;;;;;;;0.80;99.90;;;;;;4994460;28;19913;-83
2021/12/23 12:01:08;;;;;;;;;;;0.90;99.90;;;;;;4979299;28;19967;-82
2021/12/23 12:03:50;;;;;;;;;;;0.90;99.90;;;;;;4982049;28;19925;-80
2021/12/23 12:06:26;;;;;;;;;;;1.00;99.90;;;;;;4972405;28;20872;-85
2021/12/23 12:09:07;;;;;;;;;;;1.20;99.90;;;;;;4971479;28;19924;-83
2021/12/23 12:11:33;;;;;;;;;;;1.20;99.90;;;;;;4974882;28;20157;-84
2021/12/23 12:13:59;;;;;;;;;;;1.20;99.90;;;;;;4962253;28;19914;-83
2021/12/23 12:16:25;;;;;;;;;;;1.30;99.90;;;;;;4952992;28;20404;-85
2021/12/23 12:18:51;;;;;;;;;;;1.20;99.90;;;;;;4971509;28;19941;-85
2021/12/23 12:21:23;;;;;;;;;;;1.20;99.90;;;;;;4975213;28;20653;-84
2021/12/23 12:24:05;;;;;;;;;;;1.10;99.90;;;;;;4948709;28;20416;-83
2021/12/23 12:26:32;;;;;;;;;;;1.20;99.90;;;;;;4969645;28;20238;-85
2021/12/23 12:29:03;;;;;;;;;;;1.10;99.90;;;;;;4975189;28;20449;-85
2021/12/23 12:31:28;;;;;;;;;;;1.10;99.90;;;;;;4972300;28;19987;-83
2021/12/23 12:34:00;;;;;;;;;;;1.10;99.90;;;;;;4976198;28;20346;-84
2021/12/23 12:36:26;;;;;;;;;;;1.10;99.90;;;;;;4979073;28;19940;-86
2021/12/23 12:39:10;;;;;;;;;;;1.10;99.90;;;;;;4974515;28;19914;-86
2021/12/23 12:41:37;;;;;;;;;;;1.10;99.90;;;;;;4978049;28;19914;-86
2021/12/23 12:44:05;;;;;;;;;;;1.00;99.90;;;;;;4973104;28;19937;-85
2021/12/23 12:46:41;;;;;;;;;;;1.00;99.90;;;;;;4962781;28;19973;-86
2021/12/23 12:49:11;;;;;;;;;;;1.00;99.90;;;;;;4978421;28;19926;-82
2021/12/23 12:51:38;;;;;;;;;;;1.00;99.90;;;;;;4977388;28;20088;-80
2021/12/23 12:54:06;;;;;;;;;;;1.00;99.90;;;;;;4975389;28;19910;-81
2021/12/23 12:56:33;;;;;;;;;;;1.00;99.90;;;;;;4981488;28;19914;-83
2021/12/23 12:58:59;;;;;;;;;;;1.00;99.90;;;;;;4988486;28;21455;-83
2021/12/23 13:01:42;;;;;;;;;;;1.00;99.90;;;;;;4969876;28;20352;-83
2021/12/23 13:04:33;;;;;;;;;;;1.00;99.90;;;;;;4988292;28;19910;-83
2021/12/23 13:07:22;;;;;;;;;;;1.00;99.90;;;;;;4988922;28;19945;-84
2021/12/23 13:09:59;;;;;;;;;;;0.90;99.90;;;;;;4997157;28;19917;-84
2021/12/23 13:12:49;;;;;;;;;;;1.00;99.90;;;;;;4992257;28;19916;-83
2021/12/23 13:15:16;;;;;;;;;;;0.90;99.90;;;;;;4978818;28;19914;-83
2021/12/23 13:17:43;;;;;;;;;;;0.90;99.90;;;;;;4973167;28;20500;-83
2021/12/23 13:20:09;;;;;;;;;;;0.90;99.90;;;;;;4974806;28;19914;-87
2021/12/23 13:22:37;;;;;;;;;;;0.90;99.90;;;;;;4977772;28;19920;-83
2021/12/23 13:25:07;;;;;;;;;;;1.00;99.90;;;;;;4954433;28;19975;-84
2021/12/23 13:27:32;;;;;;;;;;;1.00;99.90;;;;;;4996074;28;19913;-83
2021/12/23 13:30:03;;;;;;;;;;;1.00;99.90;;;;;;4995690;28;20331;-84
2021/12/23 13:32:29;;;;;;;;;;;1.00;99.90;;;;;;4995962;28;19925;-83
2021/12/23 13:34:54;;;;;;;;;;;0.90;99.90;;;;;;4977853;28;19914;-82
2021/12/23 13:37:20;;;;;;;;;;;1.00;99.90;;;;;;4977973;28;19918;-83
2021/12/23 13:39:48;;;;;;;;;;;1.00;99.90;;;;;;4978437;28;19961;-83
2021/12/23 13:42:13;;;;;;;;;;;1.10;99.90;;;;;;4979435;28;19914;-84
2021/12/23 13:44:41;;;;;;;;;;;1.10;99.90;;;;;;4980699;28;19979;-84
2021/12/23 13:47:08;;;;;;;;;;;1.10;99.90;;;;;;4978326;28;19964;-83
2021/12/23 13:49:47;;;;;;;;;;;1.10;99.90;;;;;;4979191;28;19929;-83
2021/12/23 13:52:18;;;;;;;;;;;1.10;99.90;;;;;;4994202;28;19920;-84
2021/12/23 13:54:43;;;;;;;;;;;1.10;99.90;;;;;;4977514;28;20044;-82
2021/12/23 13:57:19;;;;;;;;;;;1.00;99.90;;;;;;4992146;28;20005;-85
2021/12/23 13:59:46;;;;;;;;;;;1.00;99.90;;;;;;4996176;28;19932;-84
2021/12/23 14:02:14;;;;;;;;;;;1.00;99.90;;;;;;4983192;28;19910;-86
2021/12/23 14:04:56;;;;;;;;;;;1.00;99.90;;;;;;4974748;28;19914;-83
2021/12/23 14:07:42;;;;;;;;;;;1.00;99.90;;;;;;4987047;28;20377;-84
2021/12/23 14:10:12;;;;;;;;;;;1.00;99.90;;;;;;4982429;28;20040;-82
2021/12/23 14:12:52;;;;;;;;;;;1.00;99.90;;;;;;4977053;28;19909;-84
2021/12/23 14:15:18;;;;;;;;;;;1.00;99.90;;;;;;4974122;28;19920;-84
2021/12/23 14:17:45;;;;;;;;;;;1.00;99.90;;;;;;4981079;28;20115;-85
2021/12/23 14:23:15;;;;;;;;;;;1.00;99.90;;;;;;4994397;28;19943;-85
2021/12/23 14:25:44;;;;;;;;;;;1.00;99.90;;;;;;4993396;28;19948;-85
2021/12/23 14:28:11;;;;;;;;;;;1.00;99.90;;;;;;4992843;28;20301;-85
2021/12/23 14:30:38;;;;;;;;;;;1.00;99.90;;;;;;5007588;28;19918;-84
2021/12/23 14:33:07;;;;;;;;;;;1.00;99.90;;;;;;4992012;28;20350;-83
2021/12/23 14:35:33;;;;;;;;;;;1.00;99.90;;;;;;4999658;28;19917;-84
2021/12/23 14:37:59;;;;;;;;;;;1.00;99.90;;;;;;5007789;28;20166;-85
2021/12/23 14:40:25;;;;;;;;;;;1.00;99.90;;;;;;4992805;28;20029;-85
2021/12/23 14:43:00;;;;;;;;;;;1.00;99.90;;;;;;4989832;28;19921;-84
2021/12/23 14:45:26;;;;;;;;;;;1.00;99.90;;;;;;4991171;28;19925;-85
2021/12/23 14:48:09;;;;;;;;;;;1.00;99.90;;;;;;4995189;28;19936;-85
2021/12/23 14:50:37;;;;;;;;;;;1.00;99.90;;;;;;4992996;28;20297;-84
2021/12/23 14:53:15;;;;;;;;;;;1.00;99.90;;;;;;4984110;28;19917;-84
2021/12/23 14:55:41;;;;;;;;;;;1.00;99.90;;;;;;4987974;28;19964;-87
2021/12/23 14:58:11;;;;;;;;;;;1.00;99.90;;;;;;4998396;28;19983;-84
2021/12/23 15:00:38;;;;;;;;;;;1.00;99.90;;;;;;4994247;28;19917;-84
2021/12/23 15:03:05;;;;;;;;;;;1.00;99.90;;;;;;4993630;28;20337;-85
2021/12/23 15:05:31;;;;;;;;;;;1.00;99.90;;;;;;4994769;28;20049;-86
2021/12/23 15:08:01;;;;;;;;;;;1.00;99.90;;;;;;5007133;28;19997;-86
2021/12/23 15:10:29;;;;;;;;;;;1.10;99.90;;;;;;4992230;28;20459;-84
2021/12/23 15:12:54;;;;;;;;;;;2.00;99.90;;;;;;4989730;28;19919;-83
2021/12/23 15:15:20;;;;;;;;;;;1.70;99.90;;;;;;4990539;28;19913;-85
2021/12/23 15:17:51;;;;;;;;;;;1.50;99.90;;;;;;4990791;28;19976;-85
2021/12/23 15:20:20;;;;;;;;;;;1.30;99.90;;;;;;4983743;28;19914;-86
2021/12/23 15:23:02;;;;;;;;;;;1.30;99.90;;;;;;4976120;28;20028;-86
2021/12/23 15:25:39;;;;;;;;;;;1.20;99.90;;;;;;4969175;28;19929;-87
2021/12/23 15:28:13;;;;;;;;;;;1.30;99.90;;;;;;4976918;28;19971;-87
2021/12/23 15:33:44;;;;;;;;;;;1.30;99.90;;;;;;4948616;28;19913;-84
2021/12/23 15:36:09;;;;;;;;;;;1.20;99.90;;;;;;4982193;28;20473;-83
2021/12/23 15:38:35;;;;;;;;;;;1.20;99.90;;;;;;4991202;28;20004;-83
2021/12/23 15:41:02;;;;;;;;;;;1.20;99.90;;;;;;4992526;28;19913;-86
2021/12/23 15:43:28;;;;;;;;;;;1.10;99.90;;;;;;4984279;28;19909;-83
2021/12/23 15:45:55;;;;;;;;;;;1.10;99.90;;;;;;4992532;28;20370;-83